sensor_id;sensor_type;location;lat;lon;timestamp;temperature;humidity
59162;DHT22;44942;48.936;8.260;2022-12-29T00:04:20;20.80;54.50
59162;DHT22;44942;48.936;8.260;2022-12-29T00:09:21;20.80;54.50
59162;DHT22;44942;48.936;8.260;2022-12-29T00:14:22;20.80;54.40
59162;DHT22;44942;48.936;8.260;2022-12-29T00:19:41;20.80;54.40
59162;DHT22;44942;48.936;8.260;2022-12-29T00:25:01;20.80;54.40
59162;DHT22;44942;48.936;8.260;2022-12-29T00:30:01;20.80;54.40
59162;DHT22;44942;48.936;8.260;2022-12-29T00:35:28;20.80;54.30
59162;DHT22;44942;48.936;8.260;2022-12-29T00:40:28;20.80;54.40
59162;DHT22;44942;48.936;8.260;2022-12-29T00:45:48;20.80;54.40
59162;DHT22;44942;48.936;8.260;2022-12-29T00:50:48;20.80;54.40
59162;DHT22;44942;48.936;8.260;2022-12-29T00:55:49;20.90;54.40
59162;DHT22;44942;48.936;8.260;2022-12-29T01:00:49;20.90;54.40
59162;DHT22;44942;48.936;8.260;2022-12-29T01:05:50;20.90;54.40
59162;DHT22;44942;48.936;8.260;2022-12-29T01:11:03;20.90;54.50
59162;DHT22;44942;48.936;8.260;2022-12-29T01:16:06;20.80;54.60
59162;DHT22;44942;48.936;8.260;2022-12-29T01:21:07;20.80;54.60
59162;DHT22;44942;48.936;8.260;2022-12-29T01:26:12;20.80;54.60
59162;DHT22;44942;48.936;8.260;2022-12-29T01:31:14;20.80;54.60
59162;DHT22;44942;48.936;8.260;2022-12-29T01:36:17;20.80;54.60
59162;DHT22;44942;48.936;8.260;2022-12-29T01:41:17;20.90;54.60
59162;DHT22;44942;48.936;8.260;2022-12-29T01:46:38;20.90;54.60
59162;DHT22;44942;48.936;8.260;2022-12-29T01:51:50;20.90;54.80
59162;DHT22;44942;48.936;8.260;2022-12-29T01:56:53;20.80;54.60
59162;DHT22;44942;48.936;8.260;2022-12-29T02:01:55;20.90;54.60
59162;DHT22;44942;48.936;8.260;2022-12-29T02:07:05;20.80;54.70
59162;DHT22;44942;48.936;8.260;2022-12-29T02:12:08;20.90;54.50
59162;DHT22;44942;48.936;8.260;2022-12-29T02:22:41;20.90;54.40
59162;DHT22;44942;48.936;8.260;2022-12-29T02:38:50;20.90;54.10
59162;DHT22;44942;48.936;8.260;2022-12-29T02:54:20;20.90;54.10
59162;DHT22;44942;48.936;8.260;2022-12-29T02:59:40;20.90;54.10
59162;DHT22;44942;48.936;8.260;2022-12-29T03:15:11;20.90;54.10
59162;DHT22;44942;48.936;8.260;2022-12-29T03:20:53;20.90;54.10
59162;DHT22;44942;48.936;8.260;2022-12-29T03:25:58;20.90;54.10
59162;DHT22;44942;48.936;8.260;2022-12-29T03:31:03;20.90;54.10
59162;DHT22;44942;48.936;8.260;2022-12-29T03:36:10;20.90;54.10
59162;DHT22;44942;48.936;8.260;2022-12-29T03:41:19;20.80;54.10
59162;DHT22;44942;48.936;8.260;2022-12-29T03:46:20;20.80;54.10
59162;DHT22;44942;48.936;8.260;2022-12-29T03:51:21;20.80;54.00
59162;DHT22;44942;48.936;8.260;2022-12-29T03:56:21;20.80;54.00
59162;DHT22;44942;48.936;8.260;2022-12-29T04:01:22;20.90;54.10
59162;DHT22;44942;48.936;8.260;2022-12-29T04:06:23;20.80;54.00
59162;DHT22;44942;48.936;8.260;2022-12-29T04:11:23;20.80;53.90
59162;DHT22;44942;48.936;8.260;2022-12-29T04:16:24;20.80;54.00
59162;DHT22;44942;48.936;8.260;2022-12-29T04:21:25;20.90;54.10
59162;DHT22;44942;48.936;8.260;2022-12-29T04:26:25;20.90;54.10
59162;DHT22;44942;48.936;8.260;2022-12-29T04:31:26;20.80;54.00
59162;DHT22;44942;48.936;8.260;2022-12-29T04:36:27;20.90;54.00
59162;DHT22;44942;48.936;8.260;2022-12-29T04:41:27;20.80;53.90
59162;DHT22;44942;48.936;8.260;2022-12-29T04:46:28;20.90;53.90
59162;DHT22;44942;48.936;8.260;2022-12-29T04:51:28;20.80;53.90
59162;DHT22;44942;48.936;8.260;2022-12-29T04:56:29;20.80;53.90
59162;DHT22;44942;48.936;8.260;2022-12-29T05:01:29;20.90;53.90
59162;DHT22;44942;48.936;8.260;2022-12-29T05:06:30;20.80;53.80
59162;DHT22;44942;48.936;8.260;2022-12-29T05:11:30;20.80;53.80
59162;DHT22;44942;48.936;8.260;2022-12-29T05:16:31;20.80;53.80
59162;DHT22;44942;48.936;8.260;2022-12-29T05:21:32;20.80;53.80
59162;DHT22;44942;48.936;8.260;2022-12-29T05:26:32;20.80;54.40
59162;DHT22;44942;48.936;8.260;2022-12-29T05:31:33;20.80;53.80
59162;DHT22;44942;48.936;8.260;2022-12-29T05:36:35;20.90;53.80
59162;DHT22;44942;48.936;8.260;2022-12-29T05:41:36;20.80;53.70
59162;DHT22;44942;48.936;8.260;2022-12-29T05:46:37;20.80;53.70
59162;DHT22;44942;48.936;8.260;2022-12-29T05:51:37;20.80;53.70
59162;DHT22;44942;48.936;8.260;2022-12-29T05:56:38;20.80;53.70
59162;DHT22;44942;48.936;8.260;2022-12-29T06:01:38;20.80;53.70
59162;DHT22;44942;48.936;8.260;2022-12-29T06:06:39;20.80;53.70
59162;DHT22;44942;48.936;8.260;2022-12-29T06:11:40;20.80;53.60
59162;DHT22;44942;48.936;8.260;2022-12-29T06:16:41;20.80;53.60
59162;DHT22;44942;48.936;8.260;2022-12-29T06:21:42;20.90;53.60
59162;DHT22;44942;48.936;8.260;2022-12-29T06:26:42;20.80;53.60
59162;DHT22;44942;48.936;8.260;2022-12-29T06:31:44;20.80;53.60
59162;DHT22;44942;48.936;8.260;2022-12-29T06:36:45;20.80;53.70
59162;DHT22;44942;48.936;8.260;2022-12-29T06:41:46;20.80;53.60
59162;DHT22;44942;48.936;8.260;2022-12-29T06:46:47;20.80;53.70
59162;DHT22;44942;48.936;8.260;2022-12-29T06:51:47;20.80;53.70
59162;DHT22;44942;48.936;8.260;2022-12-29T06:56:48;20.80;53.60
59162;DHT22;44942;48.936;8.260;2022-12-29T07:01:49;20.80;53.60
59162;DHT22;44942;48.936;8.260;2022-12-29T07:06:49;20.80;53.70
59162;DHT22;44942;48.936;8.260;2022-12-29T07:11:50;20.80;53.70
59162;DHT22;44942;48.936;8.260;2022-12-29T07:16:50;20.80;53.70
59162;DHT22;44942;48.936;8.260;2022-12-29T07:21:51;20.80;53.70
59162;DHT22;44942;48.936;8.260;2022-12-29T07:26:54;20.80;53.70
59162;DHT22;44942;48.936;8.260;2022-12-29T07:31:54;20.80;53.70
59162;DHT22;44942;48.936;8.260;2022-12-29T07:36:55;20.80;53.90
59162;DHT22;44942;48.936;8.260;2022-12-29T07:41:55;20.80;53.90
59162;DHT22;44942;48.936;8.260;2022-12-29T07:46:56;20.80;53.90
59162;DHT22;44942;48.936;8.260;2022-12-29T07:51:57;20.80;53.90
59162;DHT22;44942;48.936;8.260;2022-12-29T07:56:57;20.80;53.80
59162;DHT22;44942;48.936;8.260;2022-12-29T08:02:00;20.80;53.80
59162;DHT22;44942;48.936;8.260;2022-12-29T08:07:01;20.80;53.70
59162;DHT22;44942;48.936;8.260;2022-12-29T08:12:01;20.80;53.80
59162;DHT22;44942;48.936;8.260;2022-12-29T08:17:02;20.80;53.70
59162;DHT22;44942;48.936;8.260;2022-12-29T08:22:03;20.80;53.70
59162;DHT22;44942;48.936;8.260;2022-12-29T08:27:03;20.70;53.70
59162;DHT22;44942;48.936;8.260;2022-12-29T08:32:04;20.70;53.70
59162;DHT22;44942;48.936;8.260;2022-12-29T08:37:05;20.70;53.70
59162;DHT22;44942;48.936;8.260;2022-12-29T08:42:05;20.70;53.70
59162;DHT22;44942;48.936;8.260;2022-12-29T08:47:06;20.70;53.70
59162;DHT22;44942;48.936;8.260;2022-12-29T08:52:07;20.70;53.80
59162;DHT22;44942;48.936;8.260;2022-12-29T08:57:08;20.70;53.80
59162;DHT22;44942;48.936;8.260;2022-12-29T09:02:12;20.70;53.80
59162;DHT22;44942;48.936;8.260;2022-12-29T09:07:12;20.70;53.80
59162;DHT22;44942;48.936;8.260;2022-12-29T09:12:13;20.60;53.70
59162;DHT22;44942;48.936;8.260;2022-12-29T09:17:14;20.60;53.70
59162;DHT22;44942;48.936;8.260;2022-12-29T09:22:33;20.60;53.70
59162;DHT22;44942;48.936;8.260;2022-12-29T09:27:34;20.60;53.70
59162;DHT22;44942;48.936;8.260;2022-12-29T09:32:35;20.60;53.70
59162;DHT22;44942;48.936;8.260;2022-12-29T09:37:36;20.60;53.60
59162;DHT22;44942;48.936;8.260;2022-12-29T09:48:00;20.60;53.60
59162;DHT22;44942;48.936;8.260;2022-12-29T09:53:20;20.60;53.60
59162;DHT22;44942;48.936;8.260;2022-12-29T09:58:53;20.50;53.60
59162;DHT22;44942;48.936;8.260;2022-12-29T10:03:56;20.60;53.60
59162;DHT22;44942;48.936;8.260;2022-12-29T10:24:55;20.50;53.50
59162;DHT22;44942;48.936;8.260;2022-12-29T10:29:58;20.50;53.50
59162;DHT22;44942;48.936;8.260;2022-12-29T10:35:10;20.50;53.50
59162;DHT22;44942;48.936;8.260;2022-12-29T10:40:26;20.50;53.50
59162;DHT22;44942;48.936;8.260;2022-12-29T10:45:29;20.50;53.60
59162;DHT22;44942;48.936;8.260;2022-12-29T10:50:31;20.50;53.60
59162;DHT22;44942;48.936;8.260;2022-12-29T10:55:35;20.50;53.50
59162;DHT22;44942;48.936;8.260;2022-12-29T11:00:36;20.50;53.60
59162;DHT22;44942;48.936;8.260;2022-12-29T11:10:44;20.40;53.50
59162;DHT22;44942;48.936;8.260;2022-12-29T11:15:47;20.40;53.50
59162;DHT22;44942;48.936;8.260;2022-12-29T11:20:50;20.40;53.50
59162;DHT22;44942;48.936;8.260;2022-12-29T11:31:15;20.40;53.50
59162;DHT22;44942;48.936;8.260;2022-12-29T11:36:20;20.40;53.50
59162;DHT22;44942;48.936;8.260;2022-12-29T11:41:29;20.40;53.60
59162;DHT22;44942;48.936;8.260;2022-12-29T11:46:34;20.40;53.60
59162;DHT22;44942;48.936;8.260;2022-12-29T11:51:48;20.40;53.60
59162;DHT22;44942;48.936;8.260;2022-12-29T11:56:50;20.40;53.50
59162;DHT22;44942;48.936;8.260;2022-12-29T12:01:53;20.40;53.50
59162;DHT22;44942;48.936;8.260;2022-12-29T12:07:17;20.40;53.50
59162;DHT22;44942;48.936;8.260;2022-12-29T12:12:34;20.40;53.60
59162;DHT22;44942;48.936;8.260;2022-12-29T12:17:44;20.40;53.50
59162;DHT22;44942;48.936;8.260;2022-12-29T12:33:24;20.30;53.60
59162;DHT22;44942;48.936;8.260;2022-12-29T13:15:46;20.30;53.60
59162;DHT22;44942;48.936;8.260;2022-12-29T13:20:49;20.30;53.70
59162;DHT22;44942;48.936;8.260;2022-12-29T13:26:19;20.30;53.60
59162;DHT22;44942;48.936;8.260;2022-12-29T13:31:28;20.30;53.60
59162;DHT22;44942;48.936;8.260;2022-12-29T13:36:48;20.30;53.70
59162;DHT22;44942;48.936;8.260;2022-12-29T13:41:56;20.30;53.60
59162;DHT22;44942;48.936;8.260;2022-12-29T13:46:59;20.30;53.60
59162;DHT22;44942;48.936;8.260;2022-12-29T13:52:28;20.30;53.60
59162;DHT22;44942;48.936;8.260;2022-12-29T13:57:45;20.30;53.60
59162;DHT22;44942;48.936;8.260;2022-12-29T14:03:10;20.30;53.60
59162;DHT22;44942;48.936;8.260;2022-12-29T14:08:15;20.30;53.60
59162;DHT22;44942;48.936;8.260;2022-12-29T14:13:21;20.30;53.60
59162;DHT22;44942;48.936;8.260;2022-12-29T14:18:25;20.30;53.60
59162;DHT22;44942;48.936;8.260;2022-12-29T14:23:36;20.30;53.80
59162;DHT22;44942;48.936;8.260;2022-12-29T14:28:46;20.30;53.80
59162;DHT22;44942;48.936;8.260;2022-12-29T14:44:32;20.30;54.00
59162;DHT22;44942;48.936;8.260;2022-12-29T14:49:41;20.30;54.00
59162;DHT22;44942;48.936;8.260;2022-12-29T14:54:49;20.30;54.00
59162;DHT22;44942;48.936;8.260;2022-12-29T14:59:54;20.30;54.10
59162;DHT22;44942;48.936;8.260;2022-12-29T15:04:59;20.30;54.00
59162;DHT22;44942;48.936;8.260;2022-12-29T15:10:08;20.30;54.10
59162;DHT22;44942;48.936;8.260;2022-12-29T15:20:30;20.30;54.10
59162;DHT22;44942;48.936;8.260;2022-12-29T15:25:31;20.30;54.10
59162;DHT22;44942;48.936;8.260;2022-12-29T15:30:32;20.20;54.10
59162;DHT22;44942;48.936;8.260;2022-12-29T15:40:34;20.30;54.20
59162;DHT22;44942;48.936;8.260;2022-12-29T15:45:35;20.30;54.10
59162;DHT22;44942;48.936;8.260;2022-12-29T15:50:36;20.30;54.10
59162;DHT22;44942;48.936;8.260;2022-12-29T15:55:39;20.20;54.10
59162;DHT22;44942;48.936;8.260;2022-12-29T16:00:50;20.30;54.20
59162;DHT22;44942;48.936;8.260;2022-12-29T16:06:25;20.30;54.30
59162;DHT22;44942;48.936;8.260;2022-12-29T16:11:32;20.20;54.20
59162;DHT22;44942;48.936;8.260;2022-12-29T16:16:39;20.20;54.20
59162;DHT22;44942;48.936;8.260;2022-12-29T16:21:41;20.20;54.20
59162;DHT22;44942;48.936;8.260;2022-12-29T16:31:57;20.20;54.30
59162;DHT22;44942;48.936;8.260;2022-12-29T16:42:35;20.20;54.20
59162;DHT22;44942;48.936;8.260;2022-12-29T16:47:39;20.20;54.20
59162;DHT22;44942;48.936;8.260;2022-12-29T16:52:39;20.20;54.20
59162;DHT22;44942;48.936;8.260;2022-12-29T16:57:42;20.20;54.30
59162;DHT22;44942;48.936;8.260;2022-12-29T17:02:43;20.20;54.30
59162;DHT22;44942;48.936;8.260;2022-12-29T17:07:45;20.20;54.30
59162;DHT22;44942;48.936;8.260;2022-12-29T17:12:48;20.20;54.30
59162;DHT22;44942;48.936;8.260;2022-12-29T17:17:49;20.20;54.30
59162;DHT22;44942;48.936;8.260;2022-12-29T17:22:52;20.20;54.30
59162;DHT22;44942;48.936;8.260;2022-12-29T17:27:56;20.20;54.40
59162;DHT22;44942;48.936;8.260;2022-12-29T17:33:01;20.20;54.40
59162;DHT22;44942;48.936;8.260;2022-12-29T17:38:18;20.20;54.50
59162;DHT22;44942;48.936;8.260;2022-12-29T17:43:19;20.20;54.50
59162;DHT22;44942;48.936;8.260;2022-12-29T17:48:20;20.20;54.60
59162;DHT22;44942;48.936;8.260;2022-12-29T17:53:23;20.20;54.70
59162;DHT22;44942;48.936;8.260;2022-12-29T17:58:29;20.20;54.70
59162;DHT22;44942;48.936;8.260;2022-12-29T18:03:32;20.20;54.80
59162;DHT22;44942;48.936;8.260;2022-12-29T18:08:34;20.30;54.90
59162;DHT22;44942;48.936;8.260;2022-12-29T18:13:35;20.30;54.90
59162;DHT22;44942;48.936;8.260;2022-12-29T18:18:36;20.30;55.00
59162;DHT22;44942;48.936;8.260;2022-12-29T18:23:36;20.30;55.10
59162;DHT22;44942;48.936;8.260;2022-12-29T18:28:39;20.30;55.20
59162;DHT22;44942;48.936;8.260;2022-12-29T18:33:39;20.30;55.30
59162;DHT22;44942;48.936;8.260;2022-12-29T18:38:40;20.30;55.30
59162;DHT22;44942;48.936;8.260;2022-12-29T18:43:41;20.30;55.40
59162;DHT22;44942;48.936;8.260;2022-12-29T18:48:42;20.30;55.40
59162;DHT22;44942;48.936;8.260;2022-12-29T18:53:43;20.40;55.60
59162;DHT22;44942;48.936;8.260;2022-12-29T18:58:43;20.40;55.60
59162;DHT22;44942;48.936;8.260;2022-12-29T19:03:44;20.40;55.60
59162;DHT22;44942;48.936;8.260;2022-12-29T19:08:45;20.40;55.70
59162;DHT22;44942;48.936;8.260;2022-12-29T19:13:46;20.40;55.80
59162;DHT22;44942;48.936;8.260;2022-12-29T19:18:47;20.40;55.90
59162;DHT22;44942;48.936;8.260;2022-12-29T19:23:48;20.50;56.80
59162;DHT22;44942;48.936;8.260;2022-12-29T19:28:49;20.40;55.90
59162;DHT22;44942;48.936;8.260;2022-12-29T19:33:49;20.50;56.00
59162;DHT22;44942;48.936;8.260;2022-12-29T19:38:50;20.50;56.10
59162;DHT22;44942;48.936;8.260;2022-12-29T19:43:50;20.50;56.10
59162;DHT22;44942;48.936;8.260;2022-12-29T19:48:52;20.50;56.10
59162;DHT22;44942;48.936;8.260;2022-12-29T19:53:54;20.50;56.10
59162;DHT22;44942;48.936;8.260;2022-12-29T19:58:55;20.60;56.10
59162;DHT22;44942;48.936;8.260;2022-12-29T20:03:56;20.60;56.10
59162;DHT22;44942;48.936;8.260;2022-12-29T20:08:57;20.50;56.10
59162;DHT22;44942;48.936;8.260;2022-12-29T20:14:00;20.60;56.20
59162;DHT22;44942;48.936;8.260;2022-12-29T20:19:01;20.60;56.30
59162;DHT22;44942;48.936;8.260;2022-12-29T20:24:03;20.60;56.30
59162;DHT22;44942;48.936;8.260;2022-12-29T20:29:04;20.60;56.40
59162;DHT22;44942;48.936;8.260;2022-12-29T20:34:05;20.60;56.40
59162;DHT22;44942;48.936;8.260;2022-12-29T20:39:11;20.60;56.30
59162;DHT22;44942;48.936;8.260;2022-12-29T20:44:13;20.70;56.50
59162;DHT22;44942;48.936;8.260;2022-12-29T20:49:13;20.70;56.60
59162;DHT22;44942;48.936;8.260;2022-12-29T20:54:14;20.70;56.80
59162;DHT22;44942;48.936;8.260;2022-12-29T20:59:15;20.70;56.70
59162;DHT22;44942;48.936;8.260;2022-12-29T21:04:15;20.80;56.70
59162;DHT22;44942;48.936;8.260;2022-12-29T21:09:16;20.80;56.70
59162;DHT22;44942;48.936;8.260;2022-12-29T21:14:17;20.80;56.90
59162;DHT22;44942;48.936;8.260;2022-12-29T21:19:17;20.90;57.20
59162;DHT22;44942;48.936;8.260;2022-12-29T21:24:18;20.90;57.30
59162;DHT22;44942;48.936;8.260;2022-12-29T21:29:19;20.90;57.30
59162;DHT22;44942;48.936;8.260;2022-12-29T21:34:19;20.90;57.20
59162;DHT22;44942;48.936;8.260;2022-12-29T21:39:20;20.90;57.20
59162;DHT22;44942;48.936;8.260;2022-12-29T21:44:21;20.90;57.20
59162;DHT22;44942;48.936;8.260;2022-12-29T21:49:40;20.90;57.10
59162;DHT22;44942;48.936;8.260;2022-12-29T21:54:40;20.90;57.10
59162;DHT22;44942;48.936;8.260;2022-12-29T21:59:59;20.90;57.20
59162;DHT22;44942;48.936;8.260;2022-12-29T22:05:18;20.90;57.10
59162;DHT22;44942;48.936;8.260;2022-12-29T22:10:42;21.00;57.20
59162;DHT22;44942;48.936;8.260;2022-12-29T22:16:07;21.00;57.20
59162;DHT22;44942;48.936;8.260;2022-12-29T22:21:09;21.00;57.20
59162;DHT22;44942;48.936;8.260;2022-12-29T22:26:11;21.00;57.10
59162;DHT22;44942;48.936;8.260;2022-12-29T22:31:24;21.00;57.20
59162;DHT22;44942;48.936;8.260;2022-12-29T22:36:27;21.00;57.20
59162;DHT22;44942;48.936;8.260;2022-12-29T22:41:27;21.00;57.30
59162;DHT22;44942;48.936;8.260;2022-12-29T22:46:28;21.00;57.20
59162;DHT22;44942;48.936;8.260;2022-12-29T22:51:28;21.00;57.20
59162;DHT22;44942;48.936;8.260;2022-12-29T22:56:29;21.00;57.30
59162;DHT22;44942;48.936;8.260;2022-12-29T23:01:29;21.00;57.30
59162;DHT22;44942;48.936;8.260;2022-12-29T23:06:30;21.00;57.30
59162;DHT22;44942;48.936;8.260;2022-12-29T23:11:31;21.00;57.30
59162;DHT22;44942;48.936;8.260;2022-12-29T23:16:32;21.00;57.30
59162;DHT22;44942;48.936;8.260;2022-12-29T23:21:32;21.00;57.30
59162;DHT22;44942;48.936;8.260;2022-12-29T23:31:36;21.00;57.30
59162;DHT22;44942;48.936;8.260;2022-12-29T23:36:37;21.00;57.40
59162;DHT22;44942;48.936;8.260;2022-12-29T23:41:38;21.00;57.40
59162;DHT22;44942;48.936;8.260;2022-12-29T23:46:39;21.10;57.50
59162;DHT22;44942;48.936;8.260;2022-12-29T23:51:40;21.00;57.50
59162;DHT22;44942;48.936;8.260;2022-12-29T23:56:41;21.10;57.40
